sensor_id;sensor_type;location;lat;lon;timestamp;temperature;humidity
17831;DHT22;9040;51.332;12.406;2022-07-29T00:01:32;21.20;90.10
17831;DHT22;9040;51.332;12.406;2022-07-29T00:03:59;21.10;90.10
17831;DHT22;9040;51.332;12.406;2022-07-29T00:06:26;21.10;90.20
17831;DHT22;9040;51.332;12.406;2022-07-29T00:08:53;21.10;90.40
17831;DHT22;9040;51.332;12.406;2022-07-29T00:11:20;21.10;90.70
17831;DHT22;9040;51.332;12.406;2022-07-29T00:13:47;21.10;90.50
17831;DHT22;9040;51.332;12.406;2022-07-29T00:16:13;21.00;90.70
17831;DHT22;9040;51.332;12.406;2022-07-29T00:18:42;21.10;90.80
17831;DHT22;9040;51.332;12.406;2022-07-29T00:21:09;21.10;91.00
17831;DHT22;9040;51.332;12.406;2022-07-29T00:23:36;21.10;90.90
17831;DHT22;9040;51.332;12.406;2022-07-29T00:26:03;21.10;91.00
17831;DHT22;9040;51.332;12.406;2022-07-29T00:28:29;21.00;91.10
17831;DHT22;9040;51.332;12.406;2022-07-29T00:30:56;20.90;91.30
17831;DHT22;9040;51.332;12.406;2022-07-29T00:33:23;20.90;91.40
17831;DHT22;9040;51.332;12.406;2022-07-29T00:35:52;20.90;91.60
17831;DHT22;9040;51.332;12.406;2022-07-29T00:38:18;20.90;91.50
17831;DHT22;9040;51.332;12.406;2022-07-29T00:40:47;20.90;91.70
17831;DHT22;9040;51.332;12.406;2022-07-29T00:43:14;20.80;91.90
17831;DHT22;9040;51.332;12.406;2022-07-29T00:45:41;20.80;91.70
17831;DHT22;9040;51.332;12.406;2022-07-29T00:48:08;20.80;92.10
17831;DHT22;9040;51.332;12.406;2022-07-29T00:50:37;20.80;92.10
17831;DHT22;9040;51.332;12.406;2022-07-29T00:53:06;20.70;92.60
17831;DHT22;9040;51.332;12.406;2022-07-29T00:55:33;20.80;92.60
17831;DHT22;9040;51.332;12.406;2022-07-29T00:58:01;20.80;92.70
17831;DHT22;9040;51.332;12.406;2022-07-29T01:00:29;20.80;92.80
17831;DHT22;9040;51.332;12.406;2022-07-29T01:02:56;20.80;92.90
17831;DHT22;9040;51.332;12.406;2022-07-29T01:05:26;20.70;92.90
17831;DHT22;9040;51.332;12.406;2022-07-29T01:07:54;20.60;93.10
17831;DHT22;9040;51.332;12.406;2022-07-29T01:10:23;20.60;93.50
17831;DHT22;9040;51.332;12.406;2022-07-29T01:12:52;20.60;93.50
17831;DHT22;9040;51.332;12.406;2022-07-29T01:15:20;20.60;93.80
17831;DHT22;9040;51.332;12.406;2022-07-29T01:17:53;20.60;93.70
17831;DHT22;9040;51.332;12.406;2022-07-29T01:20:26;20.60;94.00
17831;DHT22;9040;51.332;12.406;2022-07-29T01:26:27;20.60;94.30
17831;DHT22;9040;51.332;12.406;2022-07-29T01:29:14;20.60;94.30
17831;DHT22;9040;51.332;12.406;2022-07-29T01:31:47;20.50;94.60
17831;DHT22;9040;51.332;12.406;2022-07-29T01:34:19;20.50;94.70
17831;DHT22;9040;51.332;12.406;2022-07-29T01:36:51;20.50;94.90
17831;DHT22;9040;51.332;12.406;2022-07-29T01:39:25;20.40;95.20
17831;DHT22;9040;51.332;12.406;2022-07-29T01:41:58;20.40;95.40
17831;DHT22;9040;51.332;12.406;2022-07-29T01:44:32;20.40;95.60
17831;DHT22;9040;51.332;12.406;2022-07-29T01:47:13;20.40;95.90
17831;DHT22;9040;51.332;12.406;2022-07-29T01:49:45;20.40;96.10
17831;DHT22;9040;51.332;12.406;2022-07-29T01:52:18;20.40;95.90
17831;DHT22;9040;51.332;12.406;2022-07-29T01:54:50;20.40;96.30
17831;DHT22;9040;51.332;12.406;2022-07-29T01:57:19;20.40;96.20
17831;DHT22;9040;51.332;12.406;2022-07-29T01:59:49;20.40;96.30
17831;DHT22;9040;51.332;12.406;2022-07-29T02:02:18;20.40;96.40
17831;DHT22;9040;51.332;12.406;2022-07-29T02:04:47;20.40;96.60
17831;DHT22;9040;51.332;12.406;2022-07-29T02:07:18;20.30;96.60
17831;DHT22;9040;51.332;12.406;2022-07-29T02:09:47;20.20;97.10
17831;DHT22;9040;51.332;12.406;2022-07-29T02:12:14;20.20;97.20
17831;DHT22;9040;51.332;12.406;2022-07-29T02:14:45;20.20;97.20
17831;DHT22;9040;51.332;12.406;2022-07-29T02:17:20;20.20;97.50
17831;DHT22;9040;51.332;12.406;2022-07-29T02:19:49;20.20;97.60
17831;DHT22;9040;51.332;12.406;2022-07-29T02:22:17;20.10;97.80
17831;DHT22;9040;51.332;12.406;2022-07-29T02:24:45;20.10;98.00
17831;DHT22;9040;51.332;12.406;2022-07-29T02:27:13;20.10;98.10
17831;DHT22;9040;51.332;12.406;2022-07-29T02:29:42;20.10;98.30
17831;DHT22;9040;51.332;12.406;2022-07-29T02:32:11;20.00;98.60
17831;DHT22;9040;51.332;12.406;2022-07-29T02:34:41;20.00;98.80
17831;DHT22;9040;51.332;12.406;2022-07-29T02:37:10;20.00;99.10
17831;DHT22;9040;51.332;12.406;2022-07-29T02:39:40;20.00;99.20
17831;DHT22;9040;51.332;12.406;2022-07-29T02:42:11;20.00;99.80
17831;DHT22;9040;51.332;12.406;2022-07-29T02:44:39;20.00;99.70
17831;DHT22;9040;51.332;12.406;2022-07-29T02:47:12;20.00;99.70
17831;DHT22;9040;51.332;12.406;2022-07-29T02:49:47;20.00;99.90
17831;DHT22;9040;51.332;12.406;2022-07-29T02:52:21;20.00;99.90
17831;DHT22;9040;51.332;12.406;2022-07-29T02:54:53;20.00;99.90
17831;DHT22;9040;51.332;12.406;2022-07-29T02:57:31;19.90;99.90
17831;DHT22;9040;51.332;12.406;2022-07-29T03:00:03;19.90;99.90
17831;DHT22;9040;51.332;12.406;2022-07-29T03:02:34;19.90;99.90
17831;DHT22;9040;51.332;12.406;2022-07-29T03:05:04;19.80;99.90
17831;DHT22;9040;51.332;12.406;2022-07-29T03:07:34;19.80;99.90
17831;DHT22;9040;51.332;12.406;2022-07-29T03:10:02;19.90;99.90
17831;DHT22;9040;51.332;12.406;2022-07-29T03:12:30;19.90;99.90
17831;DHT22;9040;51.332;12.406;2022-07-29T03:14:58;19.80;99.90
17831;DHT22;9040;51.332;12.406;2022-07-29T03:17:25;19.80;99.90
17831;DHT22;9040;51.332;12.406;2022-07-29T03:19:53;19.70;99.90
17831;DHT22;9040;51.332;12.406;2022-07-29T03:22:22;19.70;99.90
17831;DHT22;9040;51.332;12.406;2022-07-29T03:24:49;19.70;99.90
17831;DHT22;9040;51.332;12.406;2022-07-29T03:27:16;19.70;99.90
17831;DHT22;9040;51.332;12.406;2022-07-29T03:29:43;19.70;99.90
17831;DHT22;9040;51.332;12.406;2022-07-29T03:32:10;19.70;99.90
17831;DHT22;9040;51.332;12.406;2022-07-29T03:34:37;19.70;99.90
17831;DHT22;9040;51.332;12.406;2022-07-29T03:37:04;19.70;99.90
17831;DHT22;9040;51.332;12.406;2022-07-29T03:39:36;19.70;99.90
17831;DHT22;9040;51.332;12.406;2022-07-29T03:42:06;19.70;99.90
17831;DHT22;9040;51.332;12.406;2022-07-29T03:44:34;19.70;99.90
17831;DHT22;9040;51.332;12.406;2022-07-29T03:47:04;19.70;99.90
17831;DHT22;9040;51.332;12.406;2022-07-29T03:49:36;19.60;99.90
17831;DHT22;9040;51.332;12.406;2022-07-29T03:52:04;19.60;99.90
17831;DHT22;9040;51.332;12.406;2022-07-29T03:54:33;19.60;99.90
17831;DHT22;9040;51.332;12.406;2022-07-29T03:57:01;19.60;99.90
17831;DHT22;9040;51.332;12.406;2022-07-29T03:59:30;19.60;99.90
17831;DHT22;9040;51.332;12.406;2022-07-29T04:01:59;19.50;99.90
17831;DHT22;9040;51.332;12.406;2022-07-29T04:04:27;19.50;99.90
17831;DHT22;9040;51.332;12.406;2022-07-29T04:06:54;19.50;99.90
17831;DHT22;9040;51.332;12.406;2022-07-29T04:09:21;19.50;99.90
17831;DHT22;9040;51.332;12.406;2022-07-29T04:11:49;19.50;99.90
17831;DHT22;9040;51.332;12.406;2022-07-29T04:14:16;19.50;99.90
17831;DHT22;9040;51.332;12.406;2022-07-29T04:16:43;19.50;99.90
17831;DHT22;9040;51.332;12.406;2022-07-29T04:19:10;19.50;99.90
17831;DHT22;9040;51.332;12.406;2022-07-29T04:21:37;19.60;99.90
17831;DHT22;9040;51.332;12.406;2022-07-29T04:24:05;19.60;99.90
17831;DHT22;9040;51.332;12.406;2022-07-29T04:26:33;19.60;99.90
17831;DHT22;9040;51.332;12.406;2022-07-29T04:29:01;19.60;99.90
17831;DHT22;9040;51.332;12.406;2022-07-29T04:31:28;19.50;99.90
17831;DHT22;9040;51.332;12.406;2022-07-29T04:33:55;19.50;99.90
17831;DHT22;9040;51.332;12.406;2022-07-29T04:36:22;19.50;99.90
17831;DHT22;9040;51.332;12.406;2022-07-29T04:38:48;19.40;99.90
17831;DHT22;9040;51.332;12.406;2022-07-29T04:41:15;19.50;99.90
17831;DHT22;9040;51.332;12.406;2022-07-29T04:43:42;19.40;99.90
17831;DHT22;9040;51.332;12.406;2022-07-29T04:46:11;19.40;99.90
17831;DHT22;9040;51.332;12.406;2022-07-29T04:48:38;19.40;99.90
17831;DHT22;9040;51.332;12.406;2022-07-29T04:51:04;19.40;99.90
17831;DHT22;9040;51.332;12.406;2022-07-29T04:53:32;19.50;99.90
17831;DHT22;9040;51.332;12.406;2022-07-29T04:55:59;19.50;99.90
17831;DHT22;9040;51.332;12.406;2022-07-29T04:58:26;19.50;99.90
17831;DHT22;9040;51.332;12.406;2022-07-29T05:00:53;19.50;99.90
17831;DHT22;9040;51.332;12.406;2022-07-29T05:03:21;19.50;99.90
17831;DHT22;9040;51.332;12.406;2022-07-29T05:05:48;19.50;99.90
17831;DHT22;9040;51.332;12.406;2022-07-29T05:08:15;19.50;99.90
17831;DHT22;9040;51.332;12.406;2022-07-29T05:10:42;19.50;99.90
17831;DHT22;9040;51.332;12.406;2022-07-29T05:13:09;19.50;99.90
17831;DHT22;9040;51.332;12.406;2022-07-29T05:15:36;19.50;99.90
17831;DHT22;9040;51.332;12.406;2022-07-29T05:18:04;19.50;99.90
17831;DHT22;9040;51.332;12.406;2022-07-29T05:20:32;19.60;99.90
17831;DHT22;9040;51.332;12.406;2022-07-29T05:23:01;19.60;99.90
17831;DHT22;9040;51.332;12.406;2022-07-29T05:25:29;19.70;99.90
17831;DHT22;9040;51.332;12.406;2022-07-29T05:27:57;19.70;99.90
17831;DHT22;9040;51.332;12.406;2022-07-29T05:30:24;19.80;99.90
17831;DHT22;9040;51.332;12.406;2022-07-29T05:32:51;19.80;99.90
17831;DHT22;9040;51.332;12.406;2022-07-29T05:35:17;19.90;99.90
17831;DHT22;9040;51.332;12.406;2022-07-29T05:37:46;19.90;99.90
17831;DHT22;9040;51.332;12.406;2022-07-29T05:40:13;19.90;99.90
17831;DHT22;9040;51.332;12.406;2022-07-29T05:42:40;20.00;99.90
17831;DHT22;9040;51.332;12.406;2022-07-29T05:45:07;20.00;99.90
17831;DHT22;9040;51.332;12.406;2022-07-29T05:47:34;20.00;99.90
17831;DHT22;9040;51.332;12.406;2022-07-29T05:50:01;20.10;99.90
17831;DHT22;9040;51.332;12.406;2022-07-29T05:52:29;20.10;99.90
17831;DHT22;9040;51.332;12.406;2022-07-29T05:54:57;20.10;99.90
17831;DHT22;9040;51.332;12.406;2022-07-29T05:57:28;20.20;99.90
17831;DHT22;9040;51.332;12.406;2022-07-29T05:59:55;20.20;99.90
17831;DHT22;9040;51.332;12.406;2022-07-29T06:02:22;20.20;99.90
17831;DHT22;9040;51.332;12.406;2022-07-29T06:04:49;20.30;99.90
17831;DHT22;9040;51.332;12.406;2022-07-29T06:07:16;20.30;99.90
17831;DHT22;9040;51.332;12.406;2022-07-29T06:09:43;20.40;99.90
17831;DHT22;9040;51.332;12.406;2022-07-29T06:12:11;20.50;99.90
17831;DHT22;9040;51.332;12.406;2022-07-29T06:14:38;20.50;99.90
17831;DHT22;9040;51.332;12.406;2022-07-29T06:17:05;20.50;99.90
17831;DHT22;9040;51.332;12.406;2022-07-29T06:19:34;20.50;99.90
17831;DHT22;9040;51.332;12.406;2022-07-29T06:22:01;20.50;99.90
17831;DHT22;9040;51.332;12.406;2022-07-29T06:24:29;20.50;99.90
17831;DHT22;9040;51.332;12.406;2022-07-29T06:26:56;20.50;99.90
17831;DHT22;9040;51.332;12.406;2022-07-29T06:29:24;20.50;99.90
17831;DHT22;9040;51.332;12.406;2022-07-29T06:31:51;20.50;99.90
17831;DHT22;9040;51.332;12.406;2022-07-29T06:34:18;20.60;99.90
17831;DHT22;9040;51.332;12.406;2022-07-29T06:36:45;20.60;99.90
17831;DHT22;9040;51.332;12.406;2022-07-29T06:39:12;20.60;99.90
17831;DHT22;9040;51.332;12.406;2022-07-29T06:41:39;20.70;99.90
17831;DHT22;9040;51.332;12.406;2022-07-29T06:44:06;20.60;99.90
17831;DHT22;9040;51.332;12.406;2022-07-29T06:46:34;20.70;99.90
17831;DHT22;9040;51.332;12.406;2022-07-29T06:49:02;20.70;99.90
17831;DHT22;9040;51.332;12.406;2022-07-29T06:51:28;20.70;99.90
17831;DHT22;9040;51.332;12.406;2022-07-29T06:53:56;20.70;99.90
17831;DHT22;9040;51.332;12.406;2022-07-29T06:56:24;20.80;99.90
17831;DHT22;9040;51.332;12.406;2022-07-29T06:58:51;20.80;99.90
17831;DHT22;9040;51.332;12.406;2022-07-29T07:01:18;20.80;99.90
17831;DHT22;9040;51.332;12.406;2022-07-29T07:03:46;20.80;99.90
17831;DHT22;9040;51.332;12.406;2022-07-29T07:06:13;20.80;99.90
17831;DHT22;9040;51.332;12.406;2022-07-29T07:08:40;20.90;99.90
17831;DHT22;9040;51.332;12.406;2022-07-29T07:11:07;21.00;99.90
17831;DHT22;9040;51.332;12.406;2022-07-29T07:13:34;21.00;99.90
17831;DHT22;9040;51.332;12.406;2022-07-29T07:16:02;21.00;99.90
17831;DHT22;9040;51.332;12.406;2022-07-29T07:18:31;21.00;99.90
17831;DHT22;9040;51.332;12.406;2022-07-29T07:21:00;21.10;99.90
17831;DHT22;9040;51.332;12.406;2022-07-29T07:23:26;21.10;99.90
17831;DHT22;9040;51.332;12.406;2022-07-29T07:25:53;21.00;99.90
17831;DHT22;9040;51.332;12.406;2022-07-29T07:28:20;21.00;99.90
17831;DHT22;9040;51.332;12.406;2022-07-29T07:30:47;21.10;99.90
17831;DHT22;9040;51.332;12.406;2022-07-29T07:33:14;21.10;99.90
17831;DHT22;9040;51.332;12.406;2022-07-29T07:35:41;21.00;99.90
17831;DHT22;9040;51.332;12.406;2022-07-29T07:38:11;21.00;99.90
17831;DHT22;9040;51.332;12.406;2022-07-29T07:40:38;20.90;99.90
17831;DHT22;9040;51.332;12.406;2022-07-29T07:43:05;21.00;99.90
17831;DHT22;9040;51.332;12.406;2022-07-29T07:45:32;21.00;99.90
17831;DHT22;9040;51.332;12.406;2022-07-29T07:47:59;21.10;99.90
17831;DHT22;9040;51.332;12.406;2022-07-29T07:50:26;21.10;99.90
17831;DHT22;9040;51.332;12.406;2022-07-29T07:52:54;21.10;99.90
17831;DHT22;9040;51.332;12.406;2022-07-29T07:55:25;21.10;99.90
17831;DHT22;9040;51.332;12.406;2022-07-29T07:57:52;21.10;99.90
17831;DHT22;9040;51.332;12.406;2022-07-29T08:00:20;21.20;99.90
17831;DHT22;9040;51.332;12.406;2022-07-29T08:02:47;21.20;99.90
17831;DHT22;9040;51.332;12.406;2022-07-29T08:05:14;21.30;99.90
17831;DHT22;9040;51.332;12.406;2022-07-29T08:07:44;21.40;99.90
17831;DHT22;9040;51.332;12.406;2022-07-29T08:10:11;21.40;99.90
17831;DHT22;9040;51.332;12.406;2022-07-29T08:12:39;21.50;99.90
17831;DHT22;9040;51.332;12.406;2022-07-29T08:15:08;21.60;99.90
17831;DHT22;9040;51.332;12.406;2022-07-29T08:17:35;21.60;99.90
17831;DHT22;9040;51.332;12.406;2022-07-29T08:20:03;21.70;99.90
17831;DHT22;9040;51.332;12.406;2022-07-29T08:22:30;21.70;99.90
17831;DHT22;9040;51.332;12.406;2022-07-29T08:24:57;21.90;99.90
17831;DHT22;9040;51.332;12.406;2022-07-29T08:27:24;22.00;99.90
17831;DHT22;9040;51.332;12.406;2022-07-29T08:29:55;22.00;99.90
17831;DHT22;9040;51.332;12.406;2022-07-29T08:32:24;22.10;99.90
17831;DHT22;9040;51.332;12.406;2022-07-29T08:34:51;22.10;99.90
17831;DHT22;9040;51.332;12.406;2022-07-29T08:37:38;22.20;99.90
17831;DHT22;9040;51.332;12.406;2022-07-29T08:40:06;22.30;99.90
17831;DHT22;9040;51.332;12.406;2022-07-29T08:42:33;22.40;99.90
17831;DHT22;9040;51.332;12.406;2022-07-29T08:45:02;22.50;99.90
17831;DHT22;9040;51.332;12.406;2022-07-29T08:47:29;22.60;99.90
17831;DHT22;9040;51.332;12.406;2022-07-29T08:49:56;22.60;99.90
17831;DHT22;9040;51.332;12.406;2022-07-29T08:52:25;22.70;99.90
17831;DHT22;9040;51.332;12.406;2022-07-29T08:54:52;22.80;99.90
17831;DHT22;9040;51.332;12.406;2022-07-29T08:57:23;22.80;99.90
17831;DHT22;9040;51.332;12.406;2022-07-29T09:00:11;23.00;99.90
17831;DHT22;9040;51.332;12.406;2022-07-29T09:02:56;23.10;99.90
17831;DHT22;9040;51.332;12.406;2022-07-29T09:05:24;23.20;99.90
17831;DHT22;9040;51.332;12.406;2022-07-29T09:07:54;23.30;99.90
17831;DHT22;9040;51.332;12.406;2022-07-29T09:10:21;23.40;99.90
17831;DHT22;9040;51.332;12.406;2022-07-29T09:12:48;23.50;99.90
17831;DHT22;9040;51.332;12.406;2022-07-29T09:15:23;23.60;99.90
17831;DHT22;9040;51.332;12.406;2022-07-29T09:17:50;23.70;99.90
17831;DHT22;9040;51.332;12.406;2022-07-29T09:20:19;23.70;99.90
17831;DHT22;9040;51.332;12.406;2022-07-29T09:22:47;23.80;99.90
17831;DHT22;9040;51.332;12.406;2022-07-29T09:25:15;23.90;99.90
17831;DHT22;9040;51.332;12.406;2022-07-29T09:28:06;23.90;99.90
17831;DHT22;9040;51.332;12.406;2022-07-29T09:30:49;23.90;99.90
17831;DHT22;9040;51.332;12.406;2022-07-29T09:33:16;23.90;99.90
17831;DHT22;9040;51.332;12.406;2022-07-29T09:35:43;23.90;99.90
17831;DHT22;9040;51.332;12.406;2022-07-29T09:38:13;23.90;99.90
17831;DHT22;9040;51.332;12.406;2022-07-29T09:40:41;23.90;99.90
17831;DHT22;9040;51.332;12.406;2022-07-29T09:43:11;23.90;99.90
17831;DHT22;9040;51.332;12.406;2022-07-29T09:45:39;23.80;99.90
17831;DHT22;9040;51.332;12.406;2022-07-29T09:48:14;23.80;99.90
17831;DHT22;9040;51.332;12.406;2022-07-29T09:50:43;23.90;99.90
17831;DHT22;9040;51.332;12.406;2022-07-29T09:53:10;23.90;99.90
17831;DHT22;9040;51.332;12.406;2022-07-29T09:55:48;24.00;99.90
17831;DHT22;9040;51.332;12.406;2022-07-29T09:58:16;24.00;99.90
17831;DHT22;9040;51.332;12.406;2022-07-29T10:00:46;24.00;99.90
17831;DHT22;9040;51.332;12.406;2022-07-29T10:03:14;24.00;99.90
17831;DHT22;9040;51.332;12.406;2022-07-29T10:05:41;24.00;99.90
17831;DHT22;9040;51.332;12.406;2022-07-29T10:08:09;24.10;99.90
17831;DHT22;9040;51.332;12.406;2022-07-29T10:10:39;24.10;99.90
17831;DHT22;9040;51.332;12.406;2022-07-29T10:13:09;24.10;99.90
17831;DHT22;9040;51.332;12.406;2022-07-29T10:15:37;24.20;99.90
17831;DHT22;9040;51.332;12.406;2022-07-29T10:18:10;24.20;99.90
17831;DHT22;9040;51.332;12.406;2022-07-29T10:20:38;24.30;99.90
17831;DHT22;9040;51.332;12.406;2022-07-29T10:23:05;24.30;99.90
17831;DHT22;9040;51.332;12.406;2022-07-29T10:25:34;24.40;99.60
17831;DHT22;9040;51.332;12.406;2022-07-29T10:28:01;24.40;99.70
17831;DHT22;9040;51.332;12.406;2022-07-29T10:30:28;24.50;99.90
17831;DHT22;9040;51.332;12.406;2022-07-29T10:33:10;24.50;99.30
17831;DHT22;9040;51.332;12.406;2022-07-29T10:36:02;24.60;99.20
17831;DHT22;9040;51.332;12.406;2022-07-29T10:38:49;24.70;99.20
17831;DHT22;9040;51.332;12.406;2022-07-29T10:41:39;24.80;98.00
17831;DHT22;9040;51.332;12.406;2022-07-29T10:44:15;24.90;98.30
17831;DHT22;9040;51.332;12.406;2022-07-29T10:46:43;25.00;96.20
17831;DHT22;9040;51.332;12.406;2022-07-29T10:49:13;25.00;95.60
17831;DHT22;9040;51.332;12.406;2022-07-29T10:52:01;25.10;95.30
17831;DHT22;9040;51.332;12.406;2022-07-29T10:54:52;25.10;95.50
17831;DHT22;9040;51.332;12.406;2022-07-29T10:57:28;25.10;95.70
17831;DHT22;9040;51.332;12.406;2022-07-29T11:00:27;25.10;95.60
17831;DHT22;9040;51.332;12.406;2022-07-29T11:02:55;25.10;95.90
17831;DHT22;9040;51.332;12.406;2022-07-29T11:05:25;25.10;95.80
17831;DHT22;9040;51.332;12.406;2022-07-29T11:08:21;25.20;94.80
17831;DHT22;9040;51.332;12.406;2022-07-29T11:10:51;25.30;94.30
17831;DHT22;9040;51.332;12.406;2022-07-29T11:13:47;25.50;93.50
17831;DHT22;9040;51.332;12.406;2022-07-29T11:16:17;25.60;92.80
17831;DHT22;9040;51.332;12.406;2022-07-29T11:19:21;25.70;92.90
17831;DHT22;9040;51.332;12.406;2022-07-29T11:21:50;25.70;92.40
17831;DHT22;9040;51.332;12.406;2022-07-29T11:24:20;25.70;92.50
17831;DHT22;9040;51.332;12.406;2022-07-29T11:27:10;25.70;92.60
17831;DHT22;9040;51.332;12.406;2022-07-29T11:29:40;25.70;93.10
17831;DHT22;9040;51.332;12.406;2022-07-29T11:32:15;25.70;93.80
17831;DHT22;9040;51.332;12.406;2022-07-29T11:34:46;25.80;93.40
17831;DHT22;9040;51.332;12.406;2022-07-29T11:37:21;25.80;93.60
17831;DHT22;9040;51.332;12.406;2022-07-29T11:40:14;26.00;93.30
17831;DHT22;9040;51.332;12.406;2022-07-29T11:42:43;26.00;93.40
17831;DHT22;9040;51.332;12.406;2022-07-29T11:45:16;26.20;92.70
17831;DHT22;9040;51.332;12.406;2022-07-29T11:47:49;26.30;92.30
17831;DHT22;9040;51.332;12.406;2022-07-29T11:50:26;26.30;91.70
17831;DHT22;9040;51.332;12.406;2022-07-29T11:52:55;26.40;92.20
17831;DHT22;9040;51.332;12.406;2022-07-29T11:55:23;26.40;92.00
17831;DHT22;9040;51.332;12.406;2022-07-29T11:57:51;26.50;92.20
17831;DHT22;9040;51.332;12.406;2022-07-29T12:00:28;26.50;92.30
17831;DHT22;9040;51.332;12.406;2022-07-29T12:02:56;26.60;92.80
17831;DHT22;9040;51.332;12.406;2022-07-29T12:05:35;26.80;92.90
17831;DHT22;9040;51.332;12.406;2022-07-29T12:08:16;26.90;92.40
17831;DHT22;9040;51.332;12.406;2022-07-29T12:10:44;27.00;92.00
17831;DHT22;9040;51.332;12.406;2022-07-29T12:13:13;27.20;92.00
17831;DHT22;9040;51.332;12.406;2022-07-29T12:15:41;27.30;91.80
17831;DHT22;9040;51.332;12.406;2022-07-29T12:18:14;27.50;91.80
17831;DHT22;9040;51.332;12.406;2022-07-29T12:20:41;27.70;92.20
17831;DHT22;9040;51.332;12.406;2022-07-29T12:23:11;28.00;91.90
17831;DHT22;9040;51.332;12.406;2022-07-29T12:25:39;28.20;91.10
17831;DHT22;9040;51.332;12.406;2022-07-29T12:28:08;28.30;90.50
17831;DHT22;9040;51.332;12.406;2022-07-29T12:30:38;28.60;90.30
17831;DHT22;9040;51.332;12.406;2022-07-29T12:33:13;28.90;90.60
17831;DHT22;9040;51.332;12.406;2022-07-29T12:35:42;29.30;90.50
17831;DHT22;9040;51.332;12.406;2022-07-29T12:38:11;29.70;88.20
17831;DHT22;9040;51.332;12.406;2022-07-29T12:40:38;29.80;87.00
17831;DHT22;9040;51.332;12.406;2022-07-29T12:43:07;29.90;87.70
17831;DHT22;9040;51.332;12.406;2022-07-29T12:45:35;30.10;86.40
17831;DHT22;9040;51.332;12.406;2022-07-29T12:48:02;30.20;86.20
17831;DHT22;9040;51.332;12.406;2022-07-29T12:50:29;30.40;85.70
17831;DHT22;9040;51.332;12.406;2022-07-29T12:53:09;30.40;84.90
17831;DHT22;9040;51.332;12.406;2022-07-29T12:55:45;30.40;85.10
17831;DHT22;9040;51.332;12.406;2022-07-29T12:58:25;30.40;82.50
17831;DHT22;9040;51.332;12.406;2022-07-29T13:01:03;30.40;83.40
17831;DHT22;9040;51.332;12.406;2022-07-29T13:03:42;30.50;80.90
17831;DHT22;9040;51.332;12.406;2022-07-29T13:06:31;30.30;84.40
17831;DHT22;9040;51.332;12.406;2022-07-29T13:08:59;30.20;80.60
17831;DHT22;9040;51.332;12.406;2022-07-29T13:11:32;29.90;82.80
17831;DHT22;9040;51.332;12.406;2022-07-29T13:14:00;29.70;82.50
17831;DHT22;9040;51.332;12.406;2022-07-29T13:16:27;29.50;84.40
17831;DHT22;9040;51.332;12.406;2022-07-29T13:19:10;29.40;81.40
17831;DHT22;9040;51.332;12.406;2022-07-29T13:21:38;29.10;82.60
17831;DHT22;9040;51.332;12.406;2022-07-29T13:24:06;29.00;84.50
17831;DHT22;9040;51.332;12.406;2022-07-29T13:26:36;28.90;83.50
17831;DHT22;9040;51.332;12.406;2022-07-29T13:29:06;28.80;85.20
17831;DHT22;9040;51.332;12.406;2022-07-29T13:31:32;28.70;84.60
17831;DHT22;9040;51.332;12.406;2022-07-29T13:33:59;28.70;84.40
17831;DHT22;9040;51.332;12.406;2022-07-29T13:36:26;28.70;85.10
17831;DHT22;9040;51.332;12.406;2022-07-29T13:38:53;28.80;84.60
17831;DHT22;9040;51.332;12.406;2022-07-29T13:41:20;28.90;86.50
17831;DHT22;9040;51.332;12.406;2022-07-29T13:43:48;28.90;85.80
17831;DHT22;9040;51.332;12.406;2022-07-29T13:46:15;28.90;85.30
17831;DHT22;9040;51.332;12.406;2022-07-29T13:48:42;28.90;82.50
17831;DHT22;9040;51.332;12.406;2022-07-29T13:51:09;28.90;86.70
17831;DHT22;9040;51.332;12.406;2022-07-29T13:53:36;28.90;85.10
17831;DHT22;9040;51.332;12.406;2022-07-29T13:56:03;28.90;83.20
17831;DHT22;9040;51.332;12.406;2022-07-29T13:58:31;28.80;86.40
17831;DHT22;9040;51.332;12.406;2022-07-29T14:01:00;28.60;85.50
17831;DHT22;9040;51.332;12.406;2022-07-29T14:03:30;28.50;84.30
17831;DHT22;9040;51.332;12.406;2022-07-29T14:05:58;28.50;85.90
17831;DHT22;9040;51.332;12.406;2022-07-29T14:08:26;28.40;86.10
17831;DHT22;9040;51.332;12.406;2022-07-29T14:10:53;28.30;83.30
17831;DHT22;9040;51.332;12.406;2022-07-29T14:13:20;28.30;83.20
17831;DHT22;9040;51.332;12.406;2022-07-29T14:15:47;28.30;83.50
17831;DHT22;9040;51.332;12.406;2022-07-29T14:18:15;28.30;83.10
17831;DHT22;9040;51.332;12.406;2022-07-29T14:20:42;28.30;84.30
17831;DHT22;9040;51.332;12.406;2022-07-29T14:23:09;28.20;83.70
17831;DHT22;9040;51.332;12.406;2022-07-29T14:25:36;28.10;85.20
17831;DHT22;9040;51.332;12.406;2022-07-29T14:28:03;28.10;87.20
17831;DHT22;9040;51.332;12.406;2022-07-29T14:30:30;28.00;86.20
17831;DHT22;9040;51.332;12.406;2022-07-29T14:32:57;27.90;86.70
17831;DHT22;9040;51.332;12.406;2022-07-29T14:35:25;27.80;85.70
17831;DHT22;9040;51.332;12.406;2022-07-29T14:37:52;27.70;86.50
17831;DHT22;9040;51.332;12.406;2022-07-29T14:40:19;27.70;87.90
17831;DHT22;9040;51.332;12.406;2022-07-29T14:42:46;27.70;88.20
17831;DHT22;9040;51.332;12.406;2022-07-29T14:45:13;27.70;87.70
17831;DHT22;9040;51.332;12.406;2022-07-29T14:47:40;27.70;86.10
17831;DHT22;9040;51.332;12.406;2022-07-29T14:50:07;27.70;86.50
17831;DHT22;9040;51.332;12.406;2022-07-29T14:52:36;27.80;86.50
17831;DHT22;9040;51.332;12.406;2022-07-29T14:55:04;27.80;87.20
17831;DHT22;9040;51.332;12.406;2022-07-29T15:00:07;27.80;87.00
17831;DHT22;9040;51.332;12.406;2022-07-29T15:02:35;27.70;85.60
17831;DHT22;9040;51.332;12.406;2022-07-29T15:05:02;27.80;86.00
17831;DHT22;9040;51.332;12.406;2022-07-29T15:07:29;27.80;86.90
17831;DHT22;9040;51.332;12.406;2022-07-29T15:09:57;27.80;87.50
17831;DHT22;9040;51.332;12.406;2022-07-29T15:12:24;27.80;88.50
17831;DHT22;9040;51.332;12.406;2022-07-29T15:14:51;27.90;89.00
17831;DHT22;9040;51.332;12.406;2022-07-29T15:17:17;27.90;89.00
17831;DHT22;9040;51.332;12.406;2022-07-29T15:19:45;27.90;88.60
17831;DHT22;9040;51.332;12.406;2022-07-29T15:25:38;27.90;88.30
17831;DHT22;9040;51.332;12.406;2022-07-29T15:28:05;27.90;88.50
17831;DHT22;9040;51.332;12.406;2022-07-29T15:30:34;27.90;88.60
17831;DHT22;9040;51.332;12.406;2022-07-29T15:33:06;27.90;89.60
17831;DHT22;9040;51.332;12.406;2022-07-29T15:35:33;27.90;89.40
17831;DHT22;9040;51.332;12.406;2022-07-29T15:43:13;27.90;88.80
17831;DHT22;9040;51.332;12.406;2022-07-29T15:45:40;27.80;88.10
17831;DHT22;9040;51.332;12.406;2022-07-29T15:48:27;27.80;90.10
17831;DHT22;9040;51.332;12.406;2022-07-29T15:50:54;27.60;92.10
17831;DHT22;9040;51.332;12.406;2022-07-29T15:53:21;27.40;93.60
17831;DHT22;9040;51.332;12.406;2022-07-29T15:55:51;27.20;94.90
17831;DHT22;9040;51.332;12.406;2022-07-29T15:58:19;26.90;96.30
17831;DHT22;9040;51.332;12.406;2022-07-29T16:00:47;26.70;97.50